createdAt,value
2018-07-28T00:00:29.419Z,20.42
2018-07-28T00:01:29.667Z,20.48
2018-07-28T00:02:29.911Z,20.48
2018-07-28T00:03:30.156Z,20.57
2018-07-28T00:04:30.405Z,20.57
2018-07-28T00:05:30.648Z,20.55
2018-07-28T00:06:30.894Z,20.58
2018-07-28T00:07:31.141Z,20.57
2018-07-28T00:08:31.387Z,20.66
2018-07-28T00:09:31.633Z,20.69
2018-07-28T00:10:31.880Z,20.72
2018-07-28T00:11:32.128Z,20.73
2018-07-28T00:12:32.375Z,20.87
2018-07-28T00:13:32.620Z,20.85
2018-07-28T00:14:32.866Z,20.89
2018-07-28T00:15:33.116Z,20.95
2018-07-28T00:16:33.372Z,21.06
2018-07-28T00:17:33.605Z,21.01
2018-07-28T00:18:33.851Z,21.01
2018-07-28T00:19:34.096Z,21.01
2018-07-28T00:20:34.342Z,21.09
2018-07-28T00:21:34.587Z,20.94
2018-07-28T00:22:34.831Z,21.01
2018-07-28T00:23:35.080Z,21.04
2018-07-28T00:24:35.322Z,20.98
2018-07-28T00:25:35.570Z,20.99
2018-07-28T00:26:35.809Z,20.95
2018-07-28T00:27:36.056Z,20.92
2018-07-28T00:28:36.302Z,20.84
2018-07-28T00:29:36.548Z,20.85
2018-07-28T00:30:36.793Z,20.77
2018-07-28T00:31:37.039Z,20.79
2018-07-28T00:32:37.284Z,20.77
2018-07-28T00:33:37.534Z,20.66
2018-07-28T00:34:37.779Z,20.62
2018-07-28T00:35:38.026Z,20.52
2018-07-28T00:36:38.271Z,20.48
2018-07-28T00:37:38.518Z,20.43
2018-07-28T00:38:38.765Z,20.41
2018-07-28T00:39:39.013Z,20.29
2018-07-28T00:40:39.257Z,20.31
2018-07-28T00:41:39.503Z,20.10
2018-07-28T00:42:39.749Z,19.78
2018-07-28T00:43:39.995Z,19.86
2018-07-28T00:44:40.241Z,19.71
2018-07-28T00:45:40.489Z,19.71
2018-07-28T00:46:40.733Z,19.62
2018-07-28T00:47:40.979Z,19.54
2018-07-28T00:48:41.226Z,19.48
2018-07-28T00:49:41.469Z,19.56
2018-07-28T00:50:41.716Z,19.71
2018-07-28T00:51:41.962Z,19.77
2018-07-28T00:52:42.208Z,19.87
2018-07-28T00:53:42.455Z,19.86
2018-07-28T00:54:42.698Z,19.86
2018-07-28T00:55:42.943Z,19.91
2018-07-28T00:56:43.190Z,19.88
2018-07-28T00:57:43.435Z,19.80
2018-07-28T00:58:43.681Z,19.84
2018-07-28T00:59:43.929Z,19.78
2018-07-28T01:00:44.173Z,19.86
2018-07-28T01:01:44.418Z,19.84
2018-07-28T01:02:44.662Z,19.81
2018-07-28T01:03:44.906Z,19.77
2018-07-28T01:04:45.152Z,19.84
2018-07-28T01:05:45.396Z,20.10
2018-07-28T01:06:45.640Z,20.06
2018-07-28T01:07:45.889Z,20.11
2018-07-28T01:08:46.131Z,20.20
2018-07-28T01:09:46.375Z,20.14
2018-07-28T01:10:46.620Z,20.11
2018-07-28T01:11:46.865Z,20.17
2018-07-28T01:12:47.112Z,20.13
2018-07-28T01:13:47.357Z,20.08
2018-07-28T01:14:47.601Z,20.10
2018-07-28T01:15:47.846Z,20.05
2018-07-28T01:16:48.092Z,20.08
2018-07-28T01:17:48.336Z,20.02
2018-07-28T01:18:48.582Z,19.94
2018-07-28T01:19:48.832Z,19.94
2018-07-28T01:20:49.071Z,19.98
2018-07-28T01:21:49.316Z,19.95
2018-07-28T01:22:49.560Z,19.81
2018-07-28T01:23:49.805Z,19.99
2018-07-28T01:24:50.053Z,19.91
2018-07-28T01:25:50.302Z,19.83
2018-07-28T01:26:50.583Z,19.78
2018-07-28T01:27:50.788Z,19.77
2018-07-28T01:28:51.036Z,19.69
2018-07-28T01:29:51.283Z,19.73
2018-07-28T01:30:51.527Z,19.62
2018-07-28T01:31:51.773Z,19.61
2018-07-28T01:32:52.020Z,19.59
2018-07-28T01:33:52.265Z,19.63
2018-07-28T01:34:52.510Z,19.63
2018-07-28T01:35:52.755Z,19.58
2018-07-28T01:36:53.001Z,19.63
2018-07-28T01:37:53.249Z,19.55
2018-07-28T01:38:53.492Z,19.50
2018-07-28T01:39:53.739Z,19.58
2018-07-28T01:40:53.982Z,19.51
2018-07-28T01:41:54.229Z,19.36
2018-07-28T01:42:54.476Z,19.41
2018-07-28T01:43:54.720Z,19.32
2018-07-28T01:44:54.964Z,19.23
2018-07-28T01:45:55.209Z,19.22
2018-07-28T01:46:55.455Z,19.28
2018-07-28T01:47:55.700Z,19.22
2018-07-28T01:48:55.946Z,19.13
2018-07-28T01:49:56.192Z,19.14
2018-07-28T01:50:56.437Z,19.13
2018-07-28T01:51:56.685Z,19.14
2018-07-28T01:52:56.933Z,19.23
2018-07-28T01:53:57.176Z,19.23
2018-07-28T01:54:57.421Z,19.28
2018-07-28T01:55:57.667Z,19.21
2018-07-28T01:56:57.912Z,19.33
2018-07-28T01:57:58.159Z,19.39
2018-07-28T01:58:58.404Z,19.37
2018-07-28T01:59:58.652Z,19.32
2018-07-28T02:00:58.896Z,19.28
2018-07-28T02:01:59.140Z,19.37
2018-07-28T02:02:59.385Z,19.37
2018-07-28T02:03:59.629Z,19.43
2018-07-28T02:04:59.875Z,19.37
2018-07-28T02:06:00.121Z,19.39
2018-07-28T02:07:00.365Z,19.37
2018-07-28T02:08:00.616Z,19.40
2018-07-28T02:09:00.853Z,19.36
2018-07-28T02:10:01.098Z,19.25
2018-07-28T02:11:01.341Z,19.11
2018-07-28T02:12:01.585Z,19.11
2018-07-28T02:13:01.831Z,19.02
2018-07-28T02:14:02.073Z,19.02
2018-07-28T02:15:02.320Z,18.91
2018-07-28T02:16:02.562Z,18.80
2018-07-28T02:17:02.807Z,18.51
2018-07-28T02:18:03.051Z,18.54
2018-07-28T02:19:03.294Z,18.42
2018-07-28T02:20:03.538Z,18.36
2018-07-28T02:21:03.783Z,18.27
2018-07-28T02:22:04.028Z,18.29
2018-07-28T02:23:04.269Z,18.35
2018-07-28T02:24:04.515Z,18.35
2018-07-28T02:25:04.760Z,18.39
2018-07-28T02:26:05.004Z,18.47
2018-07-28T02:27:05.248Z,18.47
2018-07-28T02:28:05.491Z,18.66
2018-07-28T02:29:05.736Z,18.62
2018-07-28T02:30:05.980Z,18.66
2018-07-28T02:31:06.224Z,18.67
2018-07-28T02:32:06.469Z,18.70
2018-07-28T02:33:06.713Z,18.78
2018-07-28T02:34:06.957Z,18.75
2018-07-28T02:35:07.205Z,18.80
2018-07-28T02:36:07.445Z,18.81
2018-07-28T02:37:07.689Z,18.80
2018-07-28T02:38:07.933Z,18.82
2018-07-28T02:39:08.177Z,18.84
2018-07-28T02:40:08.421Z,18.85
2018-07-28T02:41:08.668Z,18.81
2018-07-28T02:42:08.909Z,18.80
2018-07-28T02:43:09.153Z,18.85
2018-07-28T02:44:09.400Z,18.80
2018-07-28T02:45:09.643Z,18.81
2018-07-28T02:46:09.885Z,18.82
2018-07-28T02:47:10.129Z,18.85
2018-07-28T02:48:10.371Z,18.94
2018-07-28T02:49:10.618Z,18.99
2018-07-28T02:50:10.862Z,18.98
2018-07-28T02:51:11.106Z,19.00
2018-07-28T02:52:11.350Z,19.00
2018-07-28T02:53:11.592Z,19.00
2018-07-28T02:54:11.835Z,19.02
2018-07-28T02:55:12.081Z,19.02
2018-07-28T02:56:12.326Z,19.04
2018-07-28T02:57:12.569Z,18.92
2018-07-28T02:58:12.812Z,18.94
2018-07-28T02:59:13.057Z,18.91
2018-07-28T03:00:13.347Z,18.88
2018-07-28T03:01:13.544Z,18.80
2018-07-28T03:02:13.786Z,18.73
2018-07-28T03:03:14.031Z,18.73
2018-07-28T03:04:14.275Z,18.73
2018-07-28T03:05:14.520Z,18.63
2018-07-28T03:06:14.764Z,18.62
2018-07-28T03:07:15.009Z,18.47
2018-07-28T03:08:15.253Z,18.54
2018-07-28T03:09:15.497Z,18.57
2018-07-28T03:10:15.740Z,18.51
2018-07-28T03:11:15.985Z,18.45
2018-07-28T03:12:16.229Z,18.50
2018-07-28T03:13:16.472Z,18.47
2018-07-28T03:14:16.717Z,18.54
2018-07-28T03:15:16.960Z,18.50
2018-07-28T03:16:17.204Z,18.48
2018-07-28T03:17:17.448Z,18.55
2018-07-28T03:18:17.693Z,18.66
2018-07-28T03:19:17.937Z,18.51
2018-07-28T03:20:18.181Z,18.54
2018-07-28T03:21:18.425Z,18.55
2018-07-28T03:22:18.670Z,18.52
2018-07-28T03:23:18.918Z,18.55
2018-07-28T03:24:19.158Z,18.41
2018-07-28T03:25:19.405Z,18.51
2018-07-28T03:26:19.646Z,18.51
2018-07-28T03:27:19.890Z,18.48
2018-07-28T03:28:20.133Z,18.62
2018-07-28T03:29:20.376Z,18.54
2018-07-28T03:30:20.624Z,18.66
2018-07-28T03:31:20.864Z,18.65
2018-07-28T03:32:21.108Z,18.72
2018-07-28T03:33:21.352Z,18.69
2018-07-28T03:34:21.597Z,18.73
2018-07-28T03:35:21.841Z,18.70
2018-07-28T03:36:22.086Z,18.72
2018-07-28T03:37:22.329Z,18.78
2018-07-28T03:38:22.574Z,18.82
2018-07-28T03:39:22.819Z,18.75
2018-07-28T03:40:23.063Z,18.76
2018-07-28T03:41:23.310Z,18.73
2018-07-28T03:42:23.550Z,18.67
2018-07-28T03:43:23.796Z,18.62
2018-07-28T03:44:24.040Z,18.52
2018-07-28T03:45:24.283Z,18.63
2018-07-28T03:46:24.527Z,18.55
2018-07-28T03:47:24.773Z,18.50
2018-07-28T03:48:25.018Z,18.47
2018-07-28T03:49:25.265Z,18.51
2018-07-28T03:50:25.505Z,18.50
2018-07-28T03:51:25.753Z,18.54
2018-07-28T03:52:25.994Z,18.52
2018-07-28T03:53:26.238Z,18.52
2018-07-28T03:54:26.482Z,18.50
2018-07-28T03:55:26.728Z,18.52
2018-07-28T03:56:27.011Z,18.54
2018-07-28T03:57:27.213Z,18.63
2018-07-28T03:58:27.458Z,18.51
2018-07-28T03:59:27.702Z,18.54
2018-07-28T04:00:27.944Z,18.52
2018-07-28T04:01:28.187Z,18.51
2018-07-28T04:02:28.434Z,18.54
2018-07-28T04:03:28.676Z,18.55
2018-07-28T04:04:28.922Z,18.45
2018-07-28T04:05:29.165Z,18.47
2018-07-28T04:06:29.409Z,18.52
2018-07-28T04:07:29.654Z,18.50
2018-07-28T04:08:29.901Z,18.48
2018-07-28T04:09:30.141Z,18.48
2018-07-28T04:10:30.389Z,18.52
2018-07-28T04:11:30.630Z,18.50
2018-07-28T04:12:30.873Z,18.45
2018-07-28T04:13:31.117Z,18.51
2018-07-28T04:14:31.405Z,18.50
2018-07-28T04:15:31.609Z,18.48
2018-07-28T04:16:31.850Z,18.54
2018-07-28T04:17:32.094Z,18.55
2018-07-28T04:18:32.339Z,18.51
2018-07-28T04:19:32.584Z,18.50
2018-07-28T04:20:32.834Z,18.58
2018-07-28T04:21:33.073Z,18.55
2018-07-28T04:22:33.317Z,18.48
2018-07-28T04:23:33.561Z,18.55
2018-07-28T04:24:33.804Z,18.48
2018-07-28T04:25:34.049Z,18.57
2018-07-28T04:26:34.296Z,18.58
2018-07-28T04:27:34.537Z,18.57
2018-07-28T04:28:34.839Z,18.78
2018-07-28T04:29:35.062Z,18.73
2018-07-28T04:30:35.270Z,18.82
2018-07-28T04:31:35.515Z,18.88
2018-07-28T04:32:35.784Z,19.04
2018-07-28T04:33:36.002Z,19.08
2018-07-28T04:34:36.246Z,19.14
2018-07-28T04:35:36.491Z,19.21
2018-07-28T04:36:36.734Z,19.19
2018-07-28T04:37:36.982Z,19.28
2018-07-28T04:38:37.223Z,19.40
2018-07-28T04:39:37.468Z,19.43
2018-07-28T04:40:37.723Z,19.44
2018-07-28T04:41:37.956Z,19.44
2018-07-28T04:42:38.199Z,19.44
2018-07-28T04:43:38.445Z,19.58
2018-07-28T04:44:38.690Z,19.66
2018-07-28T04:45:38.932Z,19.55
2018-07-28T04:46:39.176Z,19.65
2018-07-28T04:47:39.422Z,19.59
2018-07-28T04:48:39.673Z,19.62
2018-07-28T04:49:39.909Z,19.61
2018-07-28T04:50:40.154Z,19.62
2018-07-28T04:51:40.399Z,19.62
2018-07-28T04:52:40.646Z,19.69
2018-07-28T04:53:40.888Z,19.65
2018-07-28T04:54:41.132Z,19.68
2018-07-28T04:55:41.377Z,19.66
2018-07-28T04:56:41.625Z,19.71
2018-07-28T04:57:41.866Z,19.71
2018-07-28T04:58:42.111Z,19.77
2018-07-28T04:59:42.356Z,19.87
2018-07-28T05:00:42.600Z,19.81
2018-07-28T05:01:42.845Z,19.81
2018-07-28T05:02:43.090Z,19.81
2018-07-28T05:03:43.338Z,20.01
2018-07-28T05:04:43.578Z,19.94
2018-07-28T05:05:43.823Z,20.03
2018-07-28T05:06:44.074Z,20.10
2018-07-28T05:07:44.323Z,20.17
2018-07-28T05:08:44.561Z,20.14
2018-07-28T05:09:44.804Z,20.18
2018-07-28T05:10:45.051Z,20.23
2018-07-28T05:11:45.293Z,20.41
2018-07-28T05:12:45.539Z,20.48
2018-07-28T05:13:45.782Z,20.58
2018-07-28T05:14:46.030Z,20.55
2018-07-28T05:15:46.272Z,20.55
2018-07-28T05:16:46.517Z,20.70
2018-07-28T05:17:46.761Z,20.72
2018-07-28T05:18:47.008Z,20.72
2018-07-28T05:19:47.254Z,20.73
2018-07-28T05:20:47.501Z,20.84
2018-07-28T05:21:47.743Z,20.94
2018-07-28T05:22:47.986Z,20.95
2018-07-28T05:23:48.273Z,20.98
2018-07-28T05:24:48.480Z,21.04
2018-07-28T05:25:48.724Z,21.07
2018-07-28T05:26:48.972Z,21.19
2018-07-28T05:27:49.216Z,21.22
2018-07-28T05:28:49.463Z,21.25
2018-07-28T05:29:49.708Z,21.28
2018-07-28T05:30:49.952Z,21.49
2018-07-28T05:31:50.198Z,21.40
2018-07-28T05:32:50.443Z,21.58
2018-07-28T05:33:50.687Z,21.58
2018-07-28T05:34:50.933Z,21.64
2018-07-28T05:35:51.179Z,21.74
2018-07-28T05:36:51.426Z,21.83
2018-07-28T05:37:51.671Z,21.90
2018-07-28T05:38:51.969Z,22.02
2018-07-28T05:39:52.164Z,22.10
2018-07-28T05:40:52.414Z,22.12
2018-07-28T05:41:52.655Z,22.18
2018-07-28T05:42:52.901Z,22.33
2018-07-28T05:43:53.147Z,22.39
2018-07-28T05:44:53.393Z,22.39
2018-07-28T05:45:53.640Z,22.43
2018-07-28T05:46:53.885Z,22.39
2018-07-28T05:47:54.130Z,22.42
2018-07-28T05:48:54.376Z,22.37
2018-07-28T05:49:54.622Z,22.42
2018-07-28T05:50:54.869Z,22.54
2018-07-28T05:51:55.116Z,22.57
2018-07-28T05:52:55.363Z,22.55
2018-07-28T05:53:55.608Z,22.52
2018-07-28T05:54:55.857Z,22.55
2018-07-28T05:55:56.103Z,22.49
2018-07-28T05:56:56.353Z,22.49
2018-07-28T05:57:56.599Z,22.57
2018-07-28T05:58:56.842Z,22.67
2018-07-28T05:59:57.089Z,22.65
2018-07-28T06:00:57.335Z,22.75
2018-07-28T06:01:57.582Z,22.76
2018-07-28T06:02:57.831Z,22.82
2018-07-28T06:03:58.076Z,22.80
2018-07-28T06:04:58.322Z,22.86
2018-07-28T06:05:58.568Z,22.83
2018-07-28T06:06:58.815Z,22.80
2018-07-28T06:07:59.061Z,22.97
2018-07-28T06:08:59.308Z,22.95
2018-07-28T06:09:59.555Z,23.13
2018-07-28T06:10:59.801Z,23.23
2018-07-28T06:12:00.049Z,23.33
2018-07-28T06:13:00.299Z,23.39
2018-07-28T06:14:00.543Z,23.46
2018-07-28T06:15:00.787Z,23.68
2018-07-28T06:16:01.036Z,23.83
2018-07-28T06:17:01.287Z,23.87
2018-07-28T06:18:01.528Z,24.02
2018-07-28T06:19:01.775Z,24.21
2018-07-28T06:20:02.020Z,24.37
2018-07-28T06:21:02.268Z,24.45
2018-07-28T06:22:02.583Z,24.43
2018-07-28T06:23:02.762Z,24.68
2018-07-28T06:24:03.012Z,24.73
2018-07-28T06:25:03.261Z,24.83
2018-07-28T06:26:03.687Z,25.02
2018-07-28T06:27:03.759Z,25.00
2018-07-28T06:28:04.007Z,25.02
2018-07-28T06:29:04.253Z,25.14
2018-07-28T06:30:04.502Z,25.03
2018-07-28T06:31:04.747Z,25.14
2018-07-28T06:32:04.998Z,25.20
2018-07-28T06:33:05.244Z,25.02
2018-07-28T06:34:05.492Z,24.98
2018-07-28T06:35:05.739Z,25.23
2018-07-28T06:36:05.991Z,25.02
2018-07-28T06:37:06.236Z,25.15
2018-07-28T06:38:06.481Z,25.10
2018-07-28T06:39:06.730Z,25.27
2018-07-28T06:40:06.976Z,25.27
2018-07-28T06:41:07.225Z,25.14
2018-07-28T06:42:07.472Z,25.25
2018-07-28T06:43:07.720Z,25.28
2018-07-28T06:44:07.969Z,25.35
2018-07-28T06:45:08.219Z,25.25
2018-07-28T06:46:08.467Z,25.28
2018-07-28T06:47:08.715Z,25.33
2018-07-28T06:48:08.967Z,25.51
2018-07-28T06:49:09.211Z,25.51
2018-07-28T06:50:09.458Z,25.75
2018-07-28T06:51:09.706Z,25.77
2018-07-28T06:52:09.955Z,25.73
2018-07-28T06:53:10.204Z,25.77
2018-07-28T06:54:10.451Z,25.75
2018-07-28T06:55:10.704Z,25.87
2018-07-28T06:56:10.951Z,25.79
2018-07-28T06:57:11.195Z,25.76
2018-07-28T06:58:11.442Z,25.83
2018-07-28T06:59:11.689Z,25.91
2018-07-28T07:00:11.998Z,26.02
2018-07-28T07:01:12.208Z,26.06
2018-07-28T07:02:12.456Z,26.06
2018-07-28T07:03:12.703Z,25.88
2018-07-28T07:04:12.952Z,26.05
2018-07-28T07:05:13.206Z,25.83
2018-07-28T07:06:13.447Z,26.17
2018-07-28T07:07:13.698Z,26.02
2018-07-28T07:08:13.946Z,26.02
2018-07-28T07:09:14.195Z,26.18
2018-07-28T07:10:14.443Z,26.01
2018-07-28T07:11:14.690Z,26.21
2018-07-28T07:12:14.939Z,26.60
2018-07-28T07:13:15.188Z,26.87
2018-07-28T07:14:15.436Z,27.24
2018-07-28T07:15:15.685Z,27.66
2018-07-28T07:16:15.933Z,27.74
2018-07-28T07:17:16.180Z,28.17
2018-07-28T07:18:16.428Z,28.78
2018-07-28T07:19:16.676Z,28.66
2018-07-28T07:20:16.925Z,28.64
2018-07-28T07:21:17.172Z,28.76
2018-07-28T07:22:17.420Z,29.28
2018-07-28T07:23:17.668Z,29.00
2018-07-28T07:24:17.915Z,28.90
2018-07-28T07:25:18.166Z,28.73
2018-07-28T07:26:18.414Z,28.64
2018-07-28T07:27:18.663Z,28.64
2018-07-28T07:28:18.913Z,29.08
2018-07-28T07:29:19.162Z,29.39
2018-07-28T07:30:19.419Z,29.26
2018-07-28T07:31:19.661Z,29.80
2018-07-28T07:32:19.909Z,29.79
2018-07-28T07:33:20.162Z,28.85
2018-07-28T07:34:20.411Z,29.76
2018-07-28T07:35:20.661Z,29.98
2018-07-28T07:36:20.910Z,29.21
2018-07-28T07:37:21.161Z,29.04
2018-07-28T07:38:21.411Z,29.27
2018-07-28T07:39:21.663Z,29.83
2018-07-28T07:40:21.912Z,30.29
2018-07-28T07:41:22.163Z,29.86
2018-07-28T07:42:22.412Z,30.01
2018-07-28T07:43:22.661Z,30.73
2018-07-28T07:44:22.934Z,31.75
2018-07-28T07:45:23.159Z,32.07
2018-07-28T07:46:23.409Z,31.31
2018-07-28T07:47:23.795Z,30.45
2018-07-28T07:48:23.910Z,31.32
2018-07-28T07:49:24.162Z,31.26
2018-07-28T07:50:24.415Z,30.26
2018-07-28T07:51:24.666Z,30.31
2018-07-28T07:52:24.918Z,30.55
2018-07-28T07:53:25.168Z,31.13
2018-07-28T07:54:25.420Z,30.82
2018-07-28T07:55:25.670Z,30.99
2018-07-28T07:56:25.923Z,30.84
2018-07-28T07:57:26.173Z,30.72
2018-07-28T07:58:26.429Z,30.98
2018-07-28T07:59:26.680Z,31.26
2018-07-28T08:00:26.928Z,31.48
2018-07-28T08:01:27.181Z,31.43
2018-07-28T08:02:27.435Z,31.44
2018-07-28T08:03:27.687Z,31.41
2018-07-28T08:04:27.938Z,31.51
2018-07-28T08:05:28.192Z,31.10
2018-07-28T08:06:28.484Z,30.84
2018-07-28T08:07:28.697Z,30.94
2018-07-28T08:08:28.949Z,31.32
2018-07-28T08:09:29.203Z,31.54
2018-07-28T08:10:29.453Z,32.29
2018-07-28T08:11:29.703Z,32.28
2018-07-28T08:12:29.956Z,33.29
2018-07-28T08:13:30.209Z,32.25
2018-07-28T08:14:30.464Z,32.35
2018-07-28T08:15:30.714Z,32.57
2018-07-28T08:16:30.967Z,32.62
2018-07-28T08:17:31.217Z,32.47
2018-07-28T08:18:31.470Z,33.23
2018-07-28T08:19:31.722Z,33.00
2018-07-28T08:20:31.974Z,32.51
2018-07-28T08:21:32.228Z,32.29
2018-07-28T08:22:32.482Z,31.91
2018-07-28T08:23:32.735Z,32.04
2018-07-28T08:24:32.987Z,33.50
2018-07-28T08:25:33.239Z,33.97
2018-07-28T08:26:33.493Z,33.60
2018-07-28T08:27:33.747Z,32.99
2018-07-28T08:28:33.998Z,32.51
2018-07-28T08:29:34.252Z,32.77
2018-07-28T08:30:34.504Z,33.38
2018-07-28T08:31:34.759Z,33.01
2018-07-28T08:32:35.013Z,33.68
2018-07-28T08:33:35.267Z,34.39
2018-07-28T08:34:35.518Z,34.19
2018-07-28T08:35:35.771Z,34.21
2018-07-28T08:36:36.025Z,33.87
2018-07-28T08:37:36.278Z,34.00
2018-07-28T08:38:36.530Z,34.17
2018-07-28T08:39:36.786Z,34.70
2018-07-28T08:40:37.039Z,35.66
2018-07-28T08:41:37.294Z,36.91
2018-07-28T08:42:37.545Z,37.37
2018-07-28T08:43:37.799Z,37.31
2018-07-28T08:44:38.053Z,36.76
2018-07-28T08:45:38.304Z,37.67
2018-07-28T08:46:38.558Z,38.22
2018-07-28T08:47:38.812Z,38.38
2018-07-28T08:48:39.065Z,37.91
2018-07-28T08:49:39.393Z,38.38
2018-07-28T08:50:39.575Z,38.72
2018-07-28T08:51:39.828Z,38.60
2018-07-28T08:52:40.084Z,36.76
2018-07-28T08:53:40.339Z,35.85
2018-07-28T08:54:40.625Z,35.16
2018-07-28T08:55:40.850Z,36.35
2018-07-28T08:56:41.107Z,37.28
2018-07-28T08:57:41.358Z,37.96
2018-07-28T08:58:41.613Z,38.22
2018-07-28T08:59:41.867Z,38.37
2018-07-28T09:00:42.124Z,38.38
2018-07-28T09:01:42.377Z,39.16
2018-07-28T09:02:42.633Z,39.17
2018-07-28T09:03:42.888Z,39.21
2018-07-28T09:04:43.144Z,39.82
2018-07-28T09:05:43.399Z,38.76
2018-07-28T09:06:43.657Z,37.76
2018-07-28T09:07:43.912Z,37.22
2018-07-28T09:08:44.168Z,36.73
2018-07-28T09:09:44.425Z,35.87
2018-07-28T09:10:44.765Z,37.44
2018-07-28T09:11:44.936Z,38.19
2018-07-28T09:12:45.193Z,38.99
2018-07-28T09:13:45.448Z,39.29
2018-07-28T09:14:45.704Z,37.44
2018-07-28T09:15:45.961Z,37.50
2018-07-28T09:16:46.218Z,37.72
2018-07-28T09:17:46.512Z,37.91
2018-07-28T09:18:46.728Z,38.65
2018-07-28T09:19:46.988Z,38.11
2018-07-28T09:20:47.242Z,38.34
2018-07-28T09:21:47.496Z,38.37
2018-07-28T09:22:47.752Z,38.16
2018-07-28T09:23:48.013Z,38.16
2018-07-28T09:24:48.264Z,37.56
2018-07-28T09:25:48.521Z,36.46
2018-07-28T09:26:48.777Z,35.52
2018-07-28T09:27:49.023Z,34.59
2018-07-28T09:28:49.274Z,34.24
2018-07-28T09:29:49.531Z,33.87
2018-07-28T09:30:49.787Z,33.56
2018-07-28T09:31:50.044Z,33.16
2018-07-28T09:32:50.299Z,32.65
2018-07-28T09:33:50.554Z,32.47
2018-07-28T09:34:50.809Z,32.07
2018-07-28T09:35:51.064Z,31.81
2018-07-28T09:36:51.370Z,31.75
2018-07-28T09:37:51.572Z,31.72
2018-07-28T09:38:51.824Z,31.66
2018-07-28T09:39:52.078Z,31.65
2018-07-28T09:40:52.336Z,31.53
2018-07-28T09:41:52.586Z,31.54
2018-07-28T09:42:52.838Z,31.46
2018-07-28T09:43:53.091Z,31.39
2018-07-28T09:44:53.345Z,31.43
2018-07-28T09:45:53.597Z,31.61
2018-07-28T09:46:53.895Z,31.53
2018-07-28T09:47:54.103Z,31.46
2018-07-28T09:48:54.356Z,31.62
2018-07-28T09:49:54.608Z,31.62
2018-07-28T09:50:54.861Z,31.44
2018-07-28T09:51:55.116Z,31.28
2018-07-28T09:52:55.368Z,31.35
2018-07-28T09:53:55.620Z,31.38
2018-07-28T09:54:55.872Z,31.39
2018-07-28T09:55:56.125Z,31.34
2018-07-28T09:56:56.380Z,30.89
2018-07-28T09:57:56.631Z,30.99
2018-07-28T09:58:56.891Z,30.94
2018-07-28T09:59:57.137Z,30.80
2018-07-28T10:00:57.390Z,30.69
2018-07-28T10:01:57.641Z,30.69
2018-07-28T10:02:57.894Z,30.80
2018-07-28T10:03:58.147Z,30.82
2018-07-28T10:04:58.399Z,30.69
2018-07-28T10:05:58.652Z,30.84
2018-07-28T10:06:58.904Z,30.75
2018-07-28T10:07:59.155Z,30.83
2018-07-28T10:08:59.407Z,31.02
2018-07-28T10:09:59.659Z,31.26
2018-07-28T10:10:59.910Z,31.29
2018-07-28T10:12:00.162Z,31.54
2018-07-28T10:13:00.415Z,32.14
2018-07-28T10:14:00.667Z,32.84
2018-07-28T10:15:00.921Z,32.84
2018-07-28T10:16:01.173Z,33.00
2018-07-28T10:17:01.425Z,33.87
2018-07-28T10:18:01.680Z,33.37
2018-07-28T10:19:01.932Z,34.00
2018-07-28T10:20:02.185Z,33.75
2018-07-28T10:21:02.437Z,35.07
2018-07-28T10:22:02.692Z,34.59
2018-07-28T10:23:02.950Z,34.46
2018-07-28T10:24:03.193Z,35.11
2018-07-28T10:25:03.447Z,35.21
2018-07-28T10:26:03.700Z,34.92
2018-07-28T10:27:03.953Z,34.87
2018-07-28T10:28:04.209Z,34.78
2018-07-28T10:29:04.464Z,34.56
2018-07-28T10:30:04.749Z,34.31
2018-07-28T10:31:04.975Z,34.34
2018-07-28T10:32:05.229Z,33.81
2018-07-28T10:33:05.489Z,33.94
2018-07-28T10:34:05.739Z,34.24
2018-07-28T10:35:05.994Z,33.63
2018-07-28T10:36:06.250Z,32.70
2018-07-28T10:37:06.505Z,32.67
2018-07-28T10:38:06.758Z,32.35
2018-07-28T10:39:07.016Z,32.00
2018-07-28T10:40:07.267Z,32.10
2018-07-28T10:41:07.519Z,32.07
2018-07-28T10:42:07.777Z,31.68
2018-07-28T10:43:08.033Z,31.68
2018-07-28T10:44:08.285Z,32.30
2018-07-28T10:45:08.537Z,32.89
2018-07-28T10:46:08.791Z,33.23
2018-07-28T10:47:09.042Z,33.79
2018-07-28T10:48:09.297Z,33.81
2018-07-28T10:49:09.552Z,33.44
2018-07-28T10:50:09.806Z,33.28
2018-07-28T10:51:10.060Z,32.89
2018-07-28T10:52:10.316Z,33.22
2018-07-28T10:53:10.567Z,32.89
2018-07-28T10:54:10.822Z,32.77
2018-07-28T10:55:11.077Z,32.74
2018-07-28T10:56:11.329Z,32.45
2018-07-28T10:57:11.585Z,32.06
2018-07-28T10:58:11.839Z,32.10
2018-07-28T10:59:12.090Z,32.01
2018-07-28T11:00:12.419Z,32.06
2018-07-28T11:01:12.599Z,31.50
2018-07-28T11:02:12.853Z,31.57
2018-07-28T11:03:13.106Z,31.46
2018-07-28T11:04:13.359Z,31.58
2018-07-28T11:05:13.614Z,31.89
2018-07-28T11:06:13.864Z,31.92
2018-07-28T11:07:14.118Z,31.88
2018-07-28T11:08:14.371Z,31.93
2018-07-28T11:09:14.681Z,32.03
2018-07-28T11:10:14.876Z,32.07
2018-07-28T11:11:15.128Z,32.15
2018-07-28T11:12:15.382Z,32.50
2018-07-28T11:13:15.634Z,32.82
2018-07-28T11:14:15.890Z,32.28
2018-07-28T11:15:16.141Z,32.28
2018-07-28T11:16:16.395Z,31.92
2018-07-28T11:17:16.647Z,32.10
2018-07-28T11:18:16.904Z,31.72
2018-07-28T11:19:17.157Z,32.03
2018-07-28T11:20:17.409Z,32.47
2018-07-28T11:21:17.658Z,33.04
2018-07-28T11:22:17.912Z,33.66
2018-07-28T11:23:18.166Z,34.03
2018-07-28T11:24:18.417Z,34.15
2018-07-28T11:25:18.669Z,34.30
2018-07-28T11:26:18.941Z,34.59
2018-07-28T11:27:19.174Z,34.73
2018-07-28T11:28:19.429Z,35.10
2018-07-28T11:29:19.682Z,35.90
2018-07-28T11:30:19.933Z,36.00
2018-07-28T11:31:20.187Z,35.14
2018-07-28T11:32:20.447Z,34.56
2018-07-28T11:33:20.710Z,34.21
2018-07-28T11:34:20.949Z,34.15
2018-07-28T11:35:21.204Z,34.02
2018-07-28T11:36:21.457Z,34.02
2018-07-28T11:37:21.710Z,34.44
2018-07-28T11:38:21.967Z,34.64
2018-07-28T11:39:22.217Z,34.50
2018-07-28T11:40:22.472Z,34.85
2018-07-28T11:41:22.725Z,34.69
2018-07-28T11:42:22.980Z,35.00
2018-07-28T11:43:23.233Z,34.62
2018-07-28T11:44:23.486Z,34.54
2018-07-28T11:45:23.740Z,34.06
2018-07-28T11:46:23.995Z,33.19
2018-07-28T11:47:24.249Z,32.82
2018-07-28T11:48:24.503Z,32.59
2018-07-28T11:49:24.757Z,32.59
2018-07-28T11:50:25.018Z,32.63
2018-07-28T11:51:25.366Z,32.40
2018-07-28T11:52:25.519Z,31.70
2018-07-28T11:53:25.773Z,31.57
2018-07-28T11:54:26.026Z,31.44
2018-07-28T11:55:26.297Z,31.43
2018-07-28T11:56:26.533Z,31.43
2018-07-28T11:57:26.787Z,31.47
2018-07-28T11:58:27.047Z,31.68
2018-07-28T11:59:27.291Z,31.70
2018-07-28T12:00:27.547Z,31.84
2018-07-28T12:01:27.796Z,32.10
2018-07-28T12:02:28.049Z,32.06
2018-07-28T12:03:28.302Z,31.73
2018-07-28T12:04:28.555Z,31.57
2018-07-28T12:05:28.812Z,31.41
2018-07-28T12:06:29.059Z,31.47
2018-07-28T12:07:29.311Z,31.46
2018-07-28T12:08:29.563Z,31.38
2018-07-28T12:09:29.815Z,31.39
2018-07-28T12:10:30.071Z,30.98
2018-07-28T12:11:30.324Z,30.72
2018-07-28T12:12:30.631Z,30.73
2018-07-28T12:13:30.828Z,30.91
2018-07-28T12:14:31.080Z,31.10
2018-07-28T12:15:31.338Z,31.13
2018-07-28T12:16:31.584Z,31.12
2018-07-28T12:17:31.835Z,31.26
2018-07-28T12:18:32.115Z,31.58
2018-07-28T12:19:32.339Z,31.54
2018-07-28T12:20:32.590Z,31.39
2018-07-28T12:21:32.843Z,31.65
2018-07-28T12:22:33.098Z,31.65
2018-07-28T12:23:33.346Z,31.63
2018-07-28T12:24:33.597Z,31.73
2018-07-28T12:25:33.856Z,31.70
2018-07-28T12:26:34.105Z,31.81
2018-07-28T12:27:34.354Z,31.72
2018-07-28T12:28:34.610Z,31.73
2018-07-28T12:29:34.858Z,31.89
2018-07-28T12:30:35.110Z,31.76
2018-07-28T12:31:35.362Z,32.01
2018-07-28T12:32:35.613Z,31.88
2018-07-28T12:33:35.865Z,31.68
2018-07-28T12:34:36.163Z,31.35
2018-07-28T12:35:36.369Z,31.13
2018-07-28T12:36:36.622Z,30.60
2018-07-28T12:37:36.874Z,30.43
2018-07-28T12:38:37.125Z,30.37
2018-07-28T12:39:37.376Z,30.26
2018-07-28T12:40:37.627Z,29.98
2018-07-28T12:41:37.878Z,29.89
2018-07-28T12:42:38.136Z,30.05
2018-07-28T12:43:38.385Z,30.17
2018-07-28T12:44:38.637Z,30.27
2018-07-28T12:45:38.890Z,30.38
2018-07-28T12:46:39.144Z,30.32
2018-07-28T12:47:39.393Z,30.34
2018-07-28T12:48:39.644Z,30.34
2018-07-28T12:49:39.893Z,30.32
2018-07-28T12:50:40.147Z,30.04
2018-07-28T12:51:40.391Z,29.80
2018-07-28T12:52:40.644Z,29.57
2018-07-28T12:53:40.896Z,29.58
2018-07-28T12:54:41.147Z,29.71
2018-07-28T12:55:41.427Z,29.71